sensor_id;sensor_type;location;lat;lon;timestamp;temperature;humidity
25046;DHT22;13044;49.304;12.840;2023-01-29T00:00:02;0.00;99.90
25046;DHT22;13044;49.304;12.840;2023-01-29T00:02:36;0.00;99.90
25046;DHT22;13044;49.304;12.840;2023-01-29T00:05:05;0.00;99.90
25046;DHT22;13044;49.304;12.840;2023-01-29T00:07:55;0.00;99.90
25046;DHT22;13044;49.304;12.840;2023-01-29T00:10:24;0.00;99.90
25046;DHT22;13044;49.304;12.840;2023-01-29T00:12:51;0.00;99.90
25046;DHT22;13044;49.304;12.840;2023-01-29T00:15:18;0.00;99.90
25046;DHT22;13044;49.304;12.840;2023-01-29T00:17:46;-0.10;99.90
25046;DHT22;13044;49.304;12.840;2023-01-29T00:20:15;-0.10;99.90
25046;DHT22;13044;49.304;12.840;2023-01-29T00:22:43;-0.20;99.90
25046;DHT22;13044;49.304;12.840;2023-01-29T00:25:10;-0.10;99.90
25046;DHT22;13044;49.304;12.840;2023-01-29T00:27:37;-0.10;99.90
25046;DHT22;13044;49.304;12.840;2023-01-29T00:30:05;0.00;99.90
25046;DHT22;13044;49.304;12.840;2023-01-29T00:32:41;0.00;99.90
25046;DHT22;13044;49.304;12.840;2023-01-29T00:35:09;0.00;99.90
25046;DHT22;13044;49.304;12.840;2023-01-29T00:37:39;0.00;99.90
25046;DHT22;13044;49.304;12.840;2023-01-29T00:40:06;0.10;99.90
25046;DHT22;13044;49.304;12.840;2023-01-29T00:42:35;0.10;99.90
25046;DHT22;13044;49.304;12.840;2023-01-29T00:45:22;0.10;99.90
25046;DHT22;13044;49.304;12.840;2023-01-29T00:47:49;0.10;99.90
25046;DHT22;13044;49.304;12.840;2023-01-29T00:50:16;-0.10;99.90
25046;DHT22;13044;49.304;12.840;2023-01-29T00:52:43;-0.20;99.90
25046;DHT22;13044;49.304;12.840;2023-01-29T00:55:11;-0.30;99.90
25046;DHT22;13044;49.304;12.840;2023-01-29T00:57:38;-0.30;99.90
25046;DHT22;13044;49.304;12.840;2023-01-29T01:00:10;-0.30;99.90
25046;DHT22;13044;49.304;12.840;2023-01-29T01:02:39;-0.40;99.90
25046;DHT22;13044;49.304;12.840;2023-01-29T01:05:25;-0.40;99.90
25046;DHT22;13044;49.304;12.840;2023-01-29T01:07:55;-0.50;99.90
25046;DHT22;13044;49.304;12.840;2023-01-29T01:10:26;-0.40;99.90
25046;DHT22;13044;49.304;12.840;2023-01-29T01:15:34;-0.40;99.90
25046;DHT22;13044;49.304;12.840;2023-01-29T01:18:02;-0.30;99.90
25046;DHT22;13044;49.304;12.840;2023-01-29T01:20:32;-0.30;99.90
25046;DHT22;13044;49.304;12.840;2023-01-29T01:23:01;-0.20;99.90
25046;DHT22;13044;49.304;12.840;2023-01-29T01:25:29;-0.20;99.90
25046;DHT22;13044;49.304;12.840;2023-01-29T01:27:57;-0.30;99.90
25046;DHT22;13044;49.304;12.840;2023-01-29T01:30:25;-0.30;99.90
25046;DHT22;13044;49.304;12.840;2023-01-29T01:32:52;-0.40;99.90
25046;DHT22;13044;49.304;12.840;2023-01-29T01:35:19;-0.50;99.90
25046;DHT22;13044;49.304;12.840;2023-01-29T01:37:46;-0.60;99.90
25046;DHT22;13044;49.304;12.840;2023-01-29T01:40:19;-0.70;99.90
25046;DHT22;13044;49.304;12.840;2023-01-29T01:42:50;-0.70;99.90
25046;DHT22;13044;49.304;12.840;2023-01-29T01:45:28;-0.60;99.90
25046;DHT22;13044;49.304;12.840;2023-01-29T01:48:11;-0.60;99.90
25046;DHT22;13044;49.304;12.840;2023-01-29T01:53:30;-0.60;99.90
25046;DHT22;13044;49.304;12.840;2023-01-29T01:56:21;-0.60;99.90
25046;DHT22;13044;49.304;12.840;2023-01-29T01:58:56;-0.50;99.90
25046;DHT22;13044;49.304;12.840;2023-01-29T02:01:25;-0.40;99.90
25046;DHT22;13044;49.304;12.840;2023-01-29T02:04:16;-0.40;99.90
25046;DHT22;13044;49.304;12.840;2023-01-29T02:07:07;-0.30;99.90
25046;DHT22;13044;49.304;12.840;2023-01-29T02:10:09;-0.40;99.90
25046;DHT22;13044;49.304;12.840;2023-01-29T02:12:38;-0.40;99.90
25046;DHT22;13044;49.304;12.840;2023-01-29T02:15:06;-0.40;99.90
25046;DHT22;13044;49.304;12.840;2023-01-29T02:17:35;-0.30;99.90
25046;DHT22;13044;49.304;12.840;2023-01-29T02:20:19;-0.40;99.90
25046;DHT22;13044;49.304;12.840;2023-01-29T02:25:57;-0.50;99.90
25046;DHT22;13044;49.304;12.840;2023-01-29T02:31:28;-0.50;99.90
25046;DHT22;13044;49.304;12.840;2023-01-29T02:34:11;-0.40;99.90
25046;DHT22;13044;49.304;12.840;2023-01-29T02:39:48;-0.40;99.90
25046;DHT22;13044;49.304;12.840;2023-01-29T02:43:14;-0.40;99.90
25046;DHT22;13044;49.304;12.840;2023-01-29T02:49:11;-0.50;99.90
25046;DHT22;13044;49.304;12.840;2023-01-29T02:51:53;-0.60;99.90
25046;DHT22;13044;49.304;12.840;2023-01-29T02:57:23;-0.60;99.90
25046;DHT22;13044;49.304;12.840;2023-01-29T02:59:58;-0.70;99.90
25046;DHT22;13044;49.304;12.840;2023-01-29T03:02:42;-0.70;99.90
25046;DHT22;13044;49.304;12.840;2023-01-29T03:05:54;-0.80;99.90
25046;DHT22;13044;49.304;12.840;2023-01-29T03:08:36;-0.70;99.90
25046;DHT22;13044;49.304;12.840;2023-01-29T03:11:13;-0.70;99.90
25046;DHT22;13044;49.304;12.840;2023-01-29T03:14:04;-0.70;99.90
25046;DHT22;13044;49.304;12.840;2023-01-29T03:16:50;-0.60;99.90
25046;DHT22;13044;49.304;12.840;2023-01-29T03:21:53;-0.60;99.90
25046;DHT22;13044;49.304;12.840;2023-01-29T03:24:51;-0.60;99.90
25046;DHT22;13044;49.304;12.840;2023-01-29T03:27:43;-0.70;99.90
25046;DHT22;13044;49.304;12.840;2023-01-29T03:30:35;-0.60;99.90
25046;DHT22;13044;49.304;12.840;2023-01-29T03:34:01;-0.50;99.90
25046;DHT22;13044;49.304;12.840;2023-01-29T03:36:54;-0.50;99.90
25046;DHT22;13044;49.304;12.840;2023-01-29T03:39:25;-0.50;99.90
25046;DHT22;13044;49.304;12.840;2023-01-29T03:42:43;-0.40;99.90
25046;DHT22;13044;49.304;12.840;2023-01-29T03:45:32;-0.40;99.90
25046;DHT22;13044;49.304;12.840;2023-01-29T03:51:10;-0.60;99.90
25046;DHT22;13044;49.304;12.840;2023-01-29T03:53:47;-0.50;99.90
25046;DHT22;13044;49.304;12.840;2023-01-29T03:57:03;-0.40;99.90
25046;DHT22;13044;49.304;12.840;2023-01-29T03:59:38;-0.40;99.90
25046;DHT22;13044;49.304;12.840;2023-01-29T04:02:18;-0.40;99.90
25046;DHT22;13044;49.304;12.840;2023-01-29T04:04:56;-0.30;99.90
25046;DHT22;13044;49.304;12.840;2023-01-29T04:07:27;-0.30;99.90
25046;DHT22;13044;49.304;12.840;2023-01-29T04:10:00;-0.30;99.90
25046;DHT22;13044;49.304;12.840;2023-01-29T04:13:02;-0.30;99.90
25046;DHT22;13044;49.304;12.840;2023-01-29T04:15:44;-0.30;99.90
25046;DHT22;13044;49.304;12.840;2023-01-29T04:18:15;-0.30;99.90
25046;DHT22;13044;49.304;12.840;2023-01-29T04:20:43;-0.30;99.90
25046;DHT22;13044;49.304;12.840;2023-01-29T04:23:24;-0.40;99.90
25046;DHT22;13044;49.304;12.840;2023-01-29T04:34:50;-0.30;99.90
25046;DHT22;13044;49.304;12.840;2023-01-29T04:41:02;-0.50;99.90
25046;DHT22;13044;49.304;12.840;2023-01-29T04:43:39;-0.60;99.90
25046;DHT22;13044;49.304;12.840;2023-01-29T04:57:35;-0.40;99.90
25046;DHT22;13044;49.304;12.840;2023-01-29T05:00:24;-0.40;99.90
25046;DHT22;13044;49.304;12.840;2023-01-29T05:02:53;-0.40;99.90
25046;DHT22;13044;49.304;12.840;2023-01-29T05:05:21;-0.40;99.90
25046;DHT22;13044;49.304;12.840;2023-01-29T05:07:49;-0.30;99.90
25046;DHT22;13044;49.304;12.840;2023-01-29T05:10:20;-0.30;99.90
25046;DHT22;13044;49.304;12.840;2023-01-29T05:12:53;-0.40;99.90
25046;DHT22;13044;49.304;12.840;2023-01-29T05:15:34;-0.40;99.90
25046;DHT22;13044;49.304;12.840;2023-01-29T05:18:05;-0.60;99.90
25046;DHT22;13044;49.304;12.840;2023-01-29T05:20:37;-0.70;99.90
25046;DHT22;13044;49.304;12.840;2023-01-29T05:25:46;-0.60;99.90
25046;DHT22;13044;49.304;12.840;2023-01-29T05:28:14;-0.60;99.90
25046;DHT22;13044;49.304;12.840;2023-01-29T05:30:45;-0.80;99.90
25046;DHT22;13044;49.304;12.840;2023-01-29T05:33:19;-0.80;99.90
25046;DHT22;13044;49.304;12.840;2023-01-29T05:35:53;-0.80;99.90
25046;DHT22;13044;49.304;12.840;2023-01-29T05:38:21;-0.70;99.90
25046;DHT22;13044;49.304;12.840;2023-01-29T05:40:49;-0.70;99.90
25046;DHT22;13044;49.304;12.840;2023-01-29T05:43:22;-1.00;99.90
25046;DHT22;13044;49.304;12.840;2023-01-29T05:45:54;-0.90;99.90
25046;DHT22;13044;49.304;12.840;2023-01-29T05:48:23;-0.70;99.90
25046;DHT22;13044;49.304;12.840;2023-01-29T05:50:51;-0.90;99.90
25046;DHT22;13044;49.304;12.840;2023-01-29T05:53:18;-0.80;99.90
25046;DHT22;13044;49.304;12.840;2023-01-29T05:55:46;-0.90;99.90
25046;DHT22;13044;49.304;12.840;2023-01-29T05:58:15;-0.90;99.90
25046;DHT22;13044;49.304;12.840;2023-01-29T06:00:41;-1.00;99.90
25046;DHT22;13044;49.304;12.840;2023-01-29T06:03:08;-1.10;99.90
25046;DHT22;13044;49.304;12.840;2023-01-29T06:05:38;-1.10;99.90
25046;DHT22;13044;49.304;12.840;2023-01-29T06:08:07;-1.10;99.90
25046;DHT22;13044;49.304;12.840;2023-01-29T06:10:34;-1.00;99.90
25046;DHT22;13044;49.304;12.840;2023-01-29T06:13:01;-1.00;99.90
25046;DHT22;13044;49.304;12.840;2023-01-29T06:15:28;-1.00;99.90
25046;DHT22;13044;49.304;12.840;2023-01-29T06:17:57;-1.20;99.90
25046;DHT22;13044;49.304;12.840;2023-01-29T06:20:25;-1.30;99.90
25046;DHT22;13044;49.304;12.840;2023-01-29T06:22:52;-1.30;99.90
25046;DHT22;13044;49.304;12.840;2023-01-29T06:25:19;-1.40;99.90
25046;DHT22;13044;49.304;12.840;2023-01-29T06:27:49;-1.50;99.90
25046;DHT22;13044;49.304;12.840;2023-01-29T06:30:16;-1.50;99.90
25046;DHT22;13044;49.304;12.840;2023-01-29T06:32:44;-1.50;99.90
25046;DHT22;13044;49.304;12.840;2023-01-29T06:35:11;-1.50;99.90
25046;DHT22;13044;49.304;12.840;2023-01-29T06:37:37;-1.40;99.90
25046;DHT22;13044;49.304;12.840;2023-01-29T06:40:05;-1.50;99.90
25046;DHT22;13044;49.304;12.840;2023-01-29T06:42:34;-1.50;99.90
25046;DHT22;13044;49.304;12.840;2023-01-29T06:45:03;-1.50;99.90
25046;DHT22;13044;49.304;12.840;2023-01-29T06:47:30;-1.50;99.90
25046;DHT22;13044;49.304;12.840;2023-01-29T06:49:57;-1.50;99.90
25046;DHT22;13044;49.304;12.840;2023-01-29T06:52:25;-1.50;99.90
25046;DHT22;13044;49.304;12.840;2023-01-29T06:54:55;-1.60;99.90
25046;DHT22;13044;49.304;12.840;2023-01-29T06:57:22;-1.60;99.90
25046;DHT22;13044;49.304;12.840;2023-01-29T06:59:49;-1.60;99.90
25046;DHT22;13044;49.304;12.840;2023-01-29T07:02:18;-1.40;99.90
25046;DHT22;13044;49.304;12.840;2023-01-29T07:04:45;-1.30;99.90
25046;DHT22;13044;49.304;12.840;2023-01-29T07:07:11;-1.40;99.90
25046;DHT22;13044;49.304;12.840;2023-01-29T07:09:40;-1.40;99.90
25046;DHT22;13044;49.304;12.840;2023-01-29T07:12:08;-1.50;99.90
25046;DHT22;13044;49.304;12.840;2023-01-29T07:14:36;-1.50;99.90
25046;DHT22;13044;49.304;12.840;2023-01-29T07:17:03;-1.70;99.90
25046;DHT22;13044;49.304;12.840;2023-01-29T07:19:30;-1.70;99.90
25046;DHT22;13044;49.304;12.840;2023-01-29T07:21:58;-1.50;99.90
25046;DHT22;13044;49.304;12.840;2023-01-29T07:24:28;-1.50;99.90
25046;DHT22;13044;49.304;12.840;2023-01-29T07:26:56;-1.50;99.90
25046;DHT22;13044;49.304;12.840;2023-01-29T07:29:23;-1.60;99.90
25046;DHT22;13044;49.304;12.840;2023-01-29T07:31:50;-1.60;99.90
25046;DHT22;13044;49.304;12.840;2023-01-29T07:34:17;-1.70;99.90
25046;DHT22;13044;49.304;12.840;2023-01-29T07:36:44;-1.70;99.90
25046;DHT22;13044;49.304;12.840;2023-01-29T07:39:11;-1.70;99.90
25046;DHT22;13044;49.304;12.840;2023-01-29T07:41:39;-1.80;99.90
25046;DHT22;13044;49.304;12.840;2023-01-29T07:44:06;-1.70;99.90
25046;DHT22;13044;49.304;12.840;2023-01-29T07:46:35;-1.60;99.90
25046;DHT22;13044;49.304;12.840;2023-01-29T07:49:02;-1.50;99.90
25046;DHT22;13044;49.304;12.840;2023-01-29T07:51:29;-1.50;99.90
25046;DHT22;13044;49.304;12.840;2023-01-29T07:53:56;-1.40;99.90
25046;DHT22;13044;49.304;12.840;2023-01-29T07:56:24;-1.50;99.90
25046;DHT22;13044;49.304;12.840;2023-01-29T07:58:52;-1.60;99.90
25046;DHT22;13044;49.304;12.840;2023-01-29T08:01:19;-1.40;99.90
25046;DHT22;13044;49.304;12.840;2023-01-29T08:03:45;-1.40;99.90
25046;DHT22;13044;49.304;12.840;2023-01-29T08:06:14;-1.50;99.90
25046;DHT22;13044;49.304;12.840;2023-01-29T08:08:42;-1.40;99.90
25046;DHT22;13044;49.304;12.840;2023-01-29T08:11:09;-1.30;99.90
25046;DHT22;13044;49.304;12.840;2023-01-29T08:13:37;-1.30;99.90
25046;DHT22;13044;49.304;12.840;2023-01-29T08:16:05;-1.20;99.90
25046;DHT22;13044;49.304;12.840;2023-01-29T08:18:33;-1.10;99.90
25046;DHT22;13044;49.304;12.840;2023-01-29T08:21:00;-1.10;99.90
25046;DHT22;13044;49.304;12.840;2023-01-29T08:23:28;-1.10;99.90
25046;DHT22;13044;49.304;12.840;2023-01-29T08:25:55;-1.10;99.90
25046;DHT22;13044;49.304;12.840;2023-01-29T08:28:23;-1.20;99.90
25046;DHT22;13044;49.304;12.840;2023-01-29T08:30:50;-1.20;99.90
25046;DHT22;13044;49.304;12.840;2023-01-29T08:33:17;-1.20;99.90
25046;DHT22;13044;49.304;12.840;2023-01-29T08:35:52;-1.10;99.90
25046;DHT22;13044;49.304;12.840;2023-01-29T08:38:19;-1.00;99.90
25046;DHT22;13044;49.304;12.840;2023-01-29T08:40:47;-1.00;99.90
25046;DHT22;13044;49.304;12.840;2023-01-29T08:43:13;-1.00;99.90
25046;DHT22;13044;49.304;12.840;2023-01-29T08:45:42;-1.00;99.90
25046;DHT22;13044;49.304;12.840;2023-01-29T08:48:10;-0.80;99.90
25046;DHT22;13044;49.304;12.840;2023-01-29T08:50:37;-0.70;99.90
25046;DHT22;13044;49.304;12.840;2023-01-29T08:53:06;-0.60;99.90
25046;DHT22;13044;49.304;12.840;2023-01-29T08:55:36;-0.60;99.90
25046;DHT22;13044;49.304;12.840;2023-01-29T08:58:05;-0.60;99.90
25046;DHT22;13044;49.304;12.840;2023-01-29T09:00:34;-0.60;99.90
25046;DHT22;13044;49.304;12.840;2023-01-29T09:03:01;-0.90;99.90
25046;DHT22;13044;49.304;12.840;2023-01-29T09:05:29;-0.90;99.90
25046;DHT22;13044;49.304;12.840;2023-01-29T09:07:56;-0.90;99.90
25046;DHT22;13044;49.304;12.840;2023-01-29T09:10:24;-0.70;99.90
25046;DHT22;13044;49.304;12.840;2023-01-29T09:12:53;-0.60;99.90
25046;DHT22;13044;49.304;12.840;2023-01-29T09:15:21;-0.60;99.90
25046;DHT22;13044;49.304;12.840;2023-01-29T09:17:49;-0.60;99.90
25046;DHT22;13044;49.304;12.840;2023-01-29T09:20:17;-0.70;99.90
25046;DHT22;13044;49.304;12.840;2023-01-29T09:22:45;-0.60;99.90
25046;DHT22;13044;49.304;12.840;2023-01-29T09:25:13;-0.50;99.90
25046;DHT22;13044;49.304;12.840;2023-01-29T09:27:41;-0.60;99.90
25046;DHT22;13044;49.304;12.840;2023-01-29T09:30:08;-0.50;99.90
25046;DHT22;13044;49.304;12.840;2023-01-29T09:32:36;-0.50;99.90
25046;DHT22;13044;49.304;12.840;2023-01-29T09:35:21;-0.50;99.90
25046;DHT22;13044;49.304;12.840;2023-01-29T09:37:50;-0.50;99.90
25046;DHT22;13044;49.304;12.840;2023-01-29T09:40:25;-0.40;99.90
25046;DHT22;13044;49.304;12.840;2023-01-29T09:43:17;-0.50;99.90
25046;DHT22;13044;49.304;12.840;2023-01-29T09:45:55;-0.40;99.90
25046;DHT22;13044;49.304;12.840;2023-01-29T09:48:30;-0.40;99.90
25046;DHT22;13044;49.304;12.840;2023-01-29T09:51:02;-0.40;99.90
25046;DHT22;13044;49.304;12.840;2023-01-29T09:53:38;-0.20;99.90
25046;DHT22;13044;49.304;12.840;2023-01-29T09:56:20;-0.50;99.90
25046;DHT22;13044;49.304;12.840;2023-01-29T09:58:48;-0.50;99.90
25046;DHT22;13044;49.304;12.840;2023-01-29T10:01:33;-0.50;99.90
25046;DHT22;13044;49.304;12.840;2023-01-29T10:04:51;-0.40;99.90
25046;DHT22;13044;49.304;12.840;2023-01-29T10:07:59;-0.30;99.90
25046;DHT22;13044;49.304;12.840;2023-01-29T10:11:00;-0.30;99.90
25046;DHT22;13044;49.304;12.840;2023-01-29T10:16:53;-0.30;99.90
25046;DHT22;13044;49.304;12.840;2023-01-29T10:25:39;-0.30;99.90
25046;DHT22;13044;49.304;12.840;2023-01-29T10:28:16;-0.20;99.90
25046;DHT22;13044;49.304;12.840;2023-01-29T10:30:50;-0.20;99.90
25046;DHT22;13044;49.304;12.840;2023-01-29T10:33:37;-0.20;99.90
25046;DHT22;13044;49.304;12.840;2023-01-29T10:36:37;-0.10;99.90
25046;DHT22;13044;49.304;12.840;2023-01-29T10:39:23;-0.10;99.90
25046;DHT22;13044;49.304;12.840;2023-01-29T10:54:22;-0.10;99.90
25046;DHT22;13044;49.304;12.840;2023-01-29T10:57:17;0.00;99.90
25046;DHT22;13044;49.304;12.840;2023-01-29T11:02:27;-0.10;99.90
25046;DHT22;13044;49.304;12.840;2023-01-29T11:04:54;0.00;99.90
25046;DHT22;13044;49.304;12.840;2023-01-29T11:07:22;0.00;99.90
25046;DHT22;13044;49.304;12.840;2023-01-29T11:10:09;0.00;99.90
25046;DHT22;13044;49.304;12.840;2023-01-29T11:12:37;0.10;99.90
25046;DHT22;13044;49.304;12.840;2023-01-29T11:15:18;0.10;99.90
25046;DHT22;13044;49.304;12.840;2023-01-29T11:20:32;-0.10;99.90
25046;DHT22;13044;49.304;12.840;2023-01-29T11:22:59;-0.20;99.90
25046;DHT22;13044;49.304;12.840;2023-01-29T11:25:26;0.00;99.90
25046;DHT22;13044;49.304;12.840;2023-01-29T11:27:57;0.00;99.90
25046;DHT22;13044;49.304;12.840;2023-01-29T11:30:38;0.00;99.90
25046;DHT22;13044;49.304;12.840;2023-01-29T11:33:21;0.20;99.90
25046;DHT22;13044;49.304;12.840;2023-01-29T11:35:51;0.00;99.90
25046;DHT22;13044;49.304;12.840;2023-01-29T11:38:24;0.00;99.90
25046;DHT22;13044;49.304;12.840;2023-01-29T11:41:05;0.00;99.90
25046;DHT22;13044;49.304;12.840;2023-01-29T11:43:39;-0.10;99.90
25046;DHT22;13044;49.304;12.840;2023-01-29T11:46:13;-0.10;99.90
25046;DHT22;13044;49.304;12.840;2023-01-29T11:48:46;-0.20;99.90
25046;DHT22;13044;49.304;12.840;2023-01-29T11:51:27;-0.20;99.90
25046;DHT22;13044;49.304;12.840;2023-01-29T11:54:00;-0.20;99.90
25046;DHT22;13044;49.304;12.840;2023-01-29T11:56:31;-0.10;99.90
25046;DHT22;13044;49.304;12.840;2023-01-29T11:59:01;-0.10;99.90
25046;DHT22;13044;49.304;12.840;2023-01-29T12:01:34;-0.10;99.90
25046;DHT22;13044;49.304;12.840;2023-01-29T12:04:18;-0.10;99.90
25046;DHT22;13044;49.304;12.840;2023-01-29T12:06:46;-0.10;99.90
25046;DHT22;13044;49.304;12.840;2023-01-29T12:09:20;0.00;99.90
25046;DHT22;13044;49.304;12.840;2023-01-29T12:11:49;0.10;99.90
25046;DHT22;13044;49.304;12.840;2023-01-29T12:17:04;0.10;99.90
25046;DHT22;13044;49.304;12.840;2023-01-29T12:19:50;0.20;99.90
25046;DHT22;13044;49.304;12.840;2023-01-29T12:22:39;0.20;99.90
25046;DHT22;13044;49.304;12.840;2023-01-29T12:31:14;0.10;99.90
25046;DHT22;13044;49.304;12.840;2023-01-29T12:34:04;0.10;99.90
25046;DHT22;13044;49.304;12.840;2023-01-29T12:40:11;0.30;99.90
25046;DHT22;13044;49.304;12.840;2023-01-29T12:42:43;0.20;99.90
25046;DHT22;13044;49.304;12.840;2023-01-29T12:45:21;0.30;99.90
25046;DHT22;13044;49.304;12.840;2023-01-29T12:47:54;0.30;99.90
25046;DHT22;13044;49.304;12.840;2023-01-29T12:50:29;0.30;99.90
25046;DHT22;13044;49.304;12.840;2023-01-29T12:53:18;0.30;99.90
25046;DHT22;13044;49.304;12.840;2023-01-29T12:56:15;0.40;99.90
25046;DHT22;13044;49.304;12.840;2023-01-29T12:58:50;0.20;99.90
25046;DHT22;13044;49.304;12.840;2023-01-29T13:01:32;0.30;99.90
25046;DHT22;13044;49.304;12.840;2023-01-29T13:06:55;0.30;99.90
25046;DHT22;13044;49.304;12.840;2023-01-29T13:09:29;0.30;99.90
25046;DHT22;13044;49.304;12.840;2023-01-29T13:12:02;0.40;99.90
25046;DHT22;13044;49.304;12.840;2023-01-29T13:14:53;0.40;99.90
25046;DHT22;13044;49.304;12.840;2023-01-29T13:17:38;0.40;99.90
25046;DHT22;13044;49.304;12.840;2023-01-29T13:20:17;0.30;99.90
25046;DHT22;13044;49.304;12.840;2023-01-29T13:24:03;0.30;99.90
25046;DHT22;13044;49.304;12.840;2023-01-29T13:26:18;0.30;99.90
25046;DHT22;13044;49.304;12.840;2023-01-29T13:28:46;0.00;99.90
25046;DHT22;13044;49.304;12.840;2023-01-29T13:36:36;0.00;99.90
25046;DHT22;13044;49.304;12.840;2023-01-29T13:41:57;0.10;99.90
25046;DHT22;13044;49.304;12.840;2023-01-29T13:44:32;0.00;99.90
25046;DHT22;13044;49.304;12.840;2023-01-29T13:47:07;0.10;99.90
25046;DHT22;13044;49.304;12.840;2023-01-29T13:49:45;0.10;99.90
25046;DHT22;13044;49.304;12.840;2023-01-29T13:52:37;0.10;99.90
25046;DHT22;13044;49.304;12.840;2023-01-29T13:55:26;0.00;99.90
25046;DHT22;13044;49.304;12.840;2023-01-29T13:58:01;0.00;99.90
25046;DHT22;13044;49.304;12.840;2023-01-29T14:07:57;-0.30;99.90
25046;DHT22;13044;49.304;12.840;2023-01-29T14:10:32;-0.30;99.90
25046;DHT22;13044;49.304;12.840;2023-01-29T14:15:32;-0.30;99.90
25046;DHT22;13044;49.304;12.840;2023-01-29T14:18:18;-0.30;99.90
25046;DHT22;13044;49.304;12.840;2023-01-29T14:26:30;-0.30;99.90
25046;DHT22;13044;49.304;12.840;2023-01-29T14:29:02;-0.30;99.90
25046;DHT22;13044;49.304;12.840;2023-01-29T14:34:47;-0.30;99.90
25046;DHT22;13044;49.304;12.840;2023-01-29T14:37:33;-0.20;99.90
25046;DHT22;13044;49.304;12.840;2023-01-29T14:43:06;-0.30;99.90
25046;DHT22;13044;49.304;12.840;2023-01-29T15:01:29;-0.20;99.90
25046;DHT22;13044;49.304;12.840;2023-01-29T15:04:03;-0.20;99.90
25046;DHT22;13044;49.304;12.840;2023-01-29T15:06:42;-0.10;99.90
25046;DHT22;13044;49.304;12.840;2023-01-29T15:09:26;-0.10;99.90
25046;DHT22;13044;49.304;12.840;2023-01-29T15:12:22;-0.10;99.90
25046;DHT22;13044;49.304;12.840;2023-01-29T15:15:14;-0.20;99.90
25046;DHT22;13044;49.304;12.840;2023-01-29T15:20:43;-0.40;99.90
25046;DHT22;13044;49.304;12.840;2023-01-29T15:23:28;-0.40;99.90
25046;DHT22;13044;49.304;12.840;2023-01-29T15:26:00;-0.50;99.90
25046;DHT22;13044;49.304;12.840;2023-01-29T15:28:30;-0.50;99.90
25046;DHT22;13044;49.304;12.840;2023-01-29T15:31:03;-0.30;99.90
25046;DHT22;13044;49.304;12.840;2023-01-29T15:33:35;-0.40;99.90
25046;DHT22;13044;49.304;12.840;2023-01-29T15:36:04;-0.50;99.90
25046;DHT22;13044;49.304;12.840;2023-01-29T15:38:33;-0.60;99.90
25046;DHT22;13044;49.304;12.840;2023-01-29T15:41:21;-0.70;99.90
25046;DHT22;13044;49.304;12.840;2023-01-29T15:43:56;-0.60;99.90
25046;DHT22;13044;49.304;12.840;2023-01-29T15:46:28;-0.60;99.90
25046;DHT22;13044;49.304;12.840;2023-01-29T15:49:01;-0.60;99.90
25046;DHT22;13044;49.304;12.840;2023-01-29T15:51:37;-0.70;99.90
25046;DHT22;13044;49.304;12.840;2023-01-29T15:54:08;-0.80;99.90
25046;DHT22;13044;49.304;12.840;2023-01-29T15:56:48;-0.80;99.90
25046;DHT22;13044;49.304;12.840;2023-01-29T15:59:20;-0.90;99.90
25046;DHT22;13044;49.304;12.840;2023-01-29T16:01:48;-1.00;99.90
25046;DHT22;13044;49.304;12.840;2023-01-29T16:04:33;-0.90;99.90
25046;DHT22;13044;49.304;12.840;2023-01-29T16:07:00;-0.80;99.90
25046;DHT22;13044;49.304;12.840;2023-01-29T16:09:29;-0.90;99.90
25046;DHT22;13044;49.304;12.840;2023-01-29T16:11:57;-1.00;99.90
25046;DHT22;13044;49.304;12.840;2023-01-29T16:14:25;-1.10;99.90
25046;DHT22;13044;49.304;12.840;2023-01-29T16:16:56;-1.10;99.90
25046;DHT22;13044;49.304;12.840;2023-01-29T16:19:36;-1.10;99.90
25046;DHT22;13044;49.304;12.840;2023-01-29T16:22:04;-1.10;99.90
25046;DHT22;13044;49.304;12.840;2023-01-29T16:24:34;-1.10;99.90
25046;DHT22;13044;49.304;12.840;2023-01-29T16:27:09;-1.10;99.90
25046;DHT22;13044;49.304;12.840;2023-01-29T16:29:39;-1.20;99.90
25046;DHT22;13044;49.304;12.840;2023-01-29T16:32:08;-1.20;99.90
25046;DHT22;13044;49.304;12.840;2023-01-29T16:34:38;-1.20;99.90
25046;DHT22;13044;49.304;12.840;2023-01-29T16:37:22;-1.20;99.90
25046;DHT22;13044;49.304;12.840;2023-01-29T16:39:50;-1.20;99.90
25046;DHT22;13044;49.304;12.840;2023-01-29T16:42:30;-1.20;99.90
25046;DHT22;13044;49.304;12.840;2023-01-29T16:45:03;-1.20;99.90
25046;DHT22;13044;49.304;12.840;2023-01-29T16:47:37;-1.20;99.90
25046;DHT22;13044;49.304;12.840;2023-01-29T16:52:56;-1.20;99.90
25046;DHT22;13044;49.304;12.840;2023-01-29T16:55:34;-1.20;99.90
25046;DHT22;13044;49.304;12.840;2023-01-29T16:58:12;-1.20;99.90
25046;DHT22;13044;49.304;12.840;2023-01-29T17:00:47;-1.20;99.90
25046;DHT22;13044;49.304;12.840;2023-01-29T17:03:17;-1.30;99.90
25046;DHT22;13044;49.304;12.840;2023-01-29T17:05:44;-1.30;99.90
25046;DHT22;13044;49.304;12.840;2023-01-29T17:08:44;-1.40;99.90
25046;DHT22;13044;49.304;12.840;2023-01-29T17:11:13;-1.40;99.90
25046;DHT22;13044;49.304;12.840;2023-01-29T17:13:54;-1.50;99.90
25046;DHT22;13044;49.304;12.840;2023-01-29T17:16:29;-1.50;99.90
25046;DHT22;13044;49.304;12.840;2023-01-29T17:18:59;-1.50;99.90
25046;DHT22;13044;49.304;12.840;2023-01-29T17:21:28;-1.50;99.90
25046;DHT22;13044;49.304;12.840;2023-01-29T17:23:55;-1.50;99.90
25046;DHT22;13044;49.304;12.840;2023-01-29T17:26:22;-1.50;99.90
25046;DHT22;13044;49.304;12.840;2023-01-29T17:28:51;-1.50;99.90
25046;DHT22;13044;49.304;12.840;2023-01-29T17:31:20;-1.50;99.90
25046;DHT22;13044;49.304;12.840;2023-01-29T17:36:22;-1.60;99.90
25046;DHT22;13044;49.304;12.840;2023-01-29T17:38:49;-1.60;99.90
25046;DHT22;13044;49.304;12.840;2023-01-29T17:41:21;-1.60;99.90
25046;DHT22;13044;49.304;12.840;2023-01-29T17:43:50;-1.60;99.90
25046;DHT22;13044;49.304;12.840;2023-01-29T17:46:18;-1.50;99.90
25046;DHT22;13044;49.304;12.840;2023-01-29T17:48:45;-1.50;99.90
25046;DHT22;13044;49.304;12.840;2023-01-29T17:51:16;-1.40;99.90
25046;DHT22;13044;49.304;12.840;2023-01-29T17:53:44;-1.40;99.90
25046;DHT22;13044;49.304;12.840;2023-01-29T17:56:17;-1.30;99.90
25046;DHT22;13044;49.304;12.840;2023-01-29T17:58:48;-1.30;99.90
25046;DHT22;13044;49.304;12.840;2023-01-29T18:01:15;-1.20;99.90
25046;DHT22;13044;49.304;12.840;2023-01-29T18:03:42;-1.20;99.90
25046;DHT22;13044;49.304;12.840;2023-01-29T18:06:23;-1.20;99.90
25046;DHT22;13044;49.304;12.840;2023-01-29T18:08:53;-1.20;99.90
25046;DHT22;13044;49.304;12.840;2023-01-29T18:11:20;-1.20;99.90
25046;DHT22;13044;49.304;12.840;2023-01-29T18:13:46;-1.20;99.90
25046;DHT22;13044;49.304;12.840;2023-01-29T18:16:13;-1.20;99.90
25046;DHT22;13044;49.304;12.840;2023-01-29T18:18:40;-1.20;99.90
25046;DHT22;13044;49.304;12.840;2023-01-29T18:21:07;-1.20;99.90
25046;DHT22;13044;49.304;12.840;2023-01-29T18:23:34;-1.20;99.90
25046;DHT22;13044;49.304;12.840;2023-01-29T18:26:01;-1.10;99.90
25046;DHT22;13044;49.304;12.840;2023-01-29T18:28:28;-1.10;99.90